sensor_id;sensor_type;location;lat;lon;timestamp;pressure;altitude;pressure_sealevel;temperature;humidity
6028;BME280;3042;43.194;27.646;2022-12-07T00:01:51;101814.63;;;16.36;100.00
6028;BME280;3042;43.194;27.646;2022-12-07T00:04:19;101815.88;;;16.45;100.00
6028;BME280;3042;43.194;27.646;2022-12-07T00:06:52;101593.94;;;15.22;100.00
6028;BME280;3042;43.194;27.646;2022-12-07T00:09:20;101823.16;;;16.32;100.00
6028;BME280;3042;43.194;27.646;2022-12-07T00:11:49;101822.72;;;16.42;100.00
6028;BME280;3042;43.194;27.646;2022-12-07T00:14:17;101818.09;;;16.35;100.00
6028;BME280;3042;43.194;27.646;2022-12-07T00:16:45;101825.94;;;16.36;100.00
6028;BME280;3042;43.194;27.646;2022-12-07T00:19:13;101820.31;;;16.48;100.00
6028;BME280;3042;43.194;27.646;2022-12-07T00:21:41;101819.41;;;16.46;100.00
6028;BME280;3042;43.194;27.646;2022-12-07T00:24:10;101818.44;;;16.44;100.00
6028;BME280;3042;43.194;27.646;2022-12-07T00:26:39;101826.31;;;16.45;100.00
6028;BME280;3042;43.194;27.646;2022-12-07T00:29:09;101822.09;;;16.49;100.00
6028;BME280;3042;43.194;27.646;2022-12-07T00:34:23;101831.22;;;16.15;100.00
6028;BME280;3042;43.194;27.646;2022-12-07T00:36:51;101832.03;;;15.92;100.00
6028;BME280;3042;43.194;27.646;2022-12-07T00:39:19;101817.72;;;15.80;100.00
6028;BME280;3042;43.194;27.646;2022-12-07T00:41:46;101838.09;;;15.91;100.00
6028;BME280;3042;43.194;27.646;2022-12-07T00:44:14;101834.44;;;16.08;100.00
6028;BME280;3042;43.194;27.646;2022-12-07T00:46:41;101832.44;;;16.23;100.00
6028;BME280;3042;43.194;27.646;2022-12-07T00:49:09;101836.44;;;16.15;100.00
6028;BME280;3042;43.194;27.646;2022-12-07T00:51:36;101825.28;;;16.18;100.00
6028;BME280;3042;43.194;27.646;2022-12-07T00:54:03;101678.94;;;15.43;100.00
6028;BME280;3042;43.194;27.646;2022-12-07T00:56:32;101821.72;;;16.16;100.00
6028;BME280;3042;43.194;27.646;2022-12-07T00:59:01;101828.63;;;15.51;100.00
6028;BME280;3042;43.194;27.646;2022-12-07T01:01:30;101817.56;;;15.77;100.00
6028;BME280;3042;43.194;27.646;2022-12-07T01:03:58;101808.94;;;15.78;100.00
6028;BME280;3042;43.194;27.646;2022-12-07T01:06:27;101819.25;;;15.35;100.00
6028;BME280;3042;43.194;27.646;2022-12-07T01:08:54;101811.34;;;15.53;100.00
6028;BME280;3042;43.194;27.646;2022-12-07T01:11:23;101804.00;;;15.65;100.00
6028;BME280;3042;43.194;27.646;2022-12-07T01:13:53;101801.41;;;15.65;100.00
6028;BME280;3042;43.194;27.646;2022-12-07T01:16:21;101799.69;;;15.45;100.00
6028;BME280;3042;43.194;27.646;2022-12-07T01:18:52;101800.16;;;15.55;100.00
6028;BME280;3042;43.194;27.646;2022-12-07T01:21:23;101794.44;;;15.64;100.00
6028;BME280;3042;43.194;27.646;2022-12-07T01:23:51;101797.47;;;15.54;100.00
6028;BME280;3042;43.194;27.646;2022-12-07T01:26:20;101788.31;;;15.63;100.00
6028;BME280;3042;43.194;27.646;2022-12-07T01:28:48;101789.91;;;15.60;100.00
6028;BME280;3042;43.194;27.646;2022-12-07T01:31:19;101777.91;;;16.30;100.00
6028;BME280;3042;43.194;27.646;2022-12-07T01:33:48;101334.16;;;13.77;100.00
6028;BME280;3042;43.194;27.646;2022-12-07T01:36:17;101771.94;;;16.56;100.00
6028;BME280;3042;43.194;27.646;2022-12-07T01:38:46;101777.03;;;16.53;100.00
6028;BME280;3042;43.194;27.646;2022-12-07T01:41:14;101762.34;;;16.55;100.00
6028;BME280;3042;43.194;27.646;2022-12-07T01:44:16;101746.94;;;16.87;100.00
6028;BME280;3042;43.194;27.646;2022-12-07T01:46:45;101749.16;;;17.00;100.00
6028;BME280;3042;43.194;27.646;2022-12-07T01:49:18;101617.41;;;16.15;100.00
6028;BME280;3042;43.194;27.646;2022-12-07T01:51:49;101632.53;;;16.00;100.00
6028;BME280;3042;43.194;27.646;2022-12-07T01:54:18;101739.53;;;16.99;100.00
6028;BME280;3042;43.194;27.646;2022-12-07T01:56:50;101746.53;;;17.00;100.00
6028;BME280;3042;43.194;27.646;2022-12-07T01:59:19;101750.47;;;16.41;100.00
6028;BME280;3042;43.194;27.646;2022-12-07T02:01:48;101538.69;;;15.29;100.00
6028;BME280;3042;43.194;27.646;2022-12-07T02:04:15;101748.72;;;16.40;100.00
6028;BME280;3042;43.194;27.646;2022-12-07T02:06:43;101721.97;;;15.99;100.00
6028;BME280;3042;43.194;27.646;2022-12-07T02:09:10;101710.00;;;16.04;100.00
6028;BME280;3042;43.194;27.646;2022-12-07T02:11:38;101750.78;;;16.02;100.00
6028;BME280;3042;43.194;27.646;2022-12-07T02:14:05;101746.03;;;16.38;100.00
6028;BME280;3042;43.194;27.646;2022-12-07T02:16:42;101754.38;;;16.52;100.00
6028;BME280;3042;43.194;27.646;2022-12-07T02:25:41;101744.09;;;16.81;100.00
6028;BME280;3042;43.194;27.646;2022-12-07T02:28:20;101740.59;;;17.04;100.00
6028;BME280;3042;43.194;27.646;2022-12-07T02:30:52;101748.50;;;16.82;100.00
6028;BME280;3042;43.194;27.646;2022-12-07T02:33:26;101749.91;;;16.74;100.00
6028;BME280;3042;43.194;27.646;2022-12-07T02:35:58;101756.03;;;16.26;100.00
6028;BME280;3042;43.194;27.646;2022-12-07T02:38:32;101745.59;;;16.50;100.00
6028;BME280;3042;43.194;27.646;2022-12-07T02:41:05;101741.72;;;16.63;100.00
6028;BME280;3042;43.194;27.646;2022-12-07T02:43:35;101752.06;;;16.84;100.00
6028;BME280;3042;43.194;27.646;2022-12-07T02:46:09;101737.34;;;16.86;100.00
6028;BME280;3042;43.194;27.646;2022-12-07T02:48:39;101745.72;;;16.77;100.00
6028;BME280;3042;43.194;27.646;2022-12-07T02:51:06;101709.16;;;16.77;100.00
6028;BME280;3042;43.194;27.646;2022-12-07T02:53:35;101744.28;;;16.61;100.00
6028;BME280;3042;43.194;27.646;2022-12-07T02:56:08;101731.34;;;16.88;100.00
6028;BME280;3042;43.194;27.646;2022-12-07T02:58:50;101729.72;;;16.92;100.00
6028;BME280;3042;43.194;27.646;2022-12-07T03:01:28;101726.28;;;16.93;100.00
6028;BME280;3042;43.194;27.646;2022-12-07T03:04:04;101724.03;;;17.04;100.00
6028;BME280;3042;43.194;27.646;2022-12-07T03:06:38;101728.75;;;16.90;100.00
6028;BME280;3042;43.194;27.646;2022-12-07T03:09:14;101733.66;;;16.81;100.00
6028;BME280;3042;43.194;27.646;2022-12-07T03:11:46;101559.66;;;15.79;100.00
6028;BME280;3042;43.194;27.646;2022-12-07T03:14:17;101720.94;;;16.90;100.00
6028;BME280;3042;43.194;27.646;2022-12-07T03:16:52;101689.53;;;16.63;100.00
6028;BME280;3042;43.194;27.646;2022-12-07T03:19:22;101732.59;;;16.76;100.00
6028;BME280;3042;43.194;27.646;2022-12-07T03:21:55;101706.50;;;16.76;100.00
6028;BME280;3042;43.194;27.646;2022-12-07T03:24:27;101731.91;;;16.80;100.00
6028;BME280;3042;43.194;27.646;2022-12-07T03:27:02;101730.75;;;16.97;100.00
6028;BME280;3042;43.194;27.646;2022-12-07T03:29:34;101723.03;;;17.00;100.00
6028;BME280;3042;43.194;27.646;2022-12-07T03:32:08;101736.50;;;16.87;100.00
6028;BME280;3042;43.194;27.646;2022-12-07T03:34:42;101706.81;;;16.83;100.00
6028;BME280;3042;43.194;27.646;2022-12-07T03:37:14;101734.75;;;16.86;100.00
6028;BME280;3042;43.194;27.646;2022-12-07T03:39:47;101734.75;;;16.86;100.00
6028;BME280;3042;43.194;27.646;2022-12-07T03:42:18;101737.03;;;16.78;100.00
6028;BME280;3042;43.194;27.646;2022-12-07T03:44:45;101746.41;;;16.72;100.00
6028;BME280;3042;43.194;27.646;2022-12-07T03:47:21;101739.47;;;16.74;100.00
6028;BME280;3042;43.194;27.646;2022-12-07T03:49:56;101740.94;;;16.65;100.00
6028;BME280;3042;43.194;27.646;2022-12-07T03:52:30;101739.16;;;16.64;100.00
6028;BME280;3042;43.194;27.646;2022-12-07T03:55:02;101741.00;;;16.67;100.00
6028;BME280;3042;43.194;27.646;2022-12-07T03:57:33;101736.00;;;16.73;100.00
6028;BME280;3042;43.194;27.646;2022-12-07T04:00:05;101735.09;;;16.73;100.00
6028;BME280;3042;43.194;27.646;2022-12-07T04:02:35;101731.19;;;16.84;100.00
6028;BME280;3042;43.194;27.646;2022-12-07T04:05:03;101740.84;;;16.62;100.00
6028;BME280;3042;43.194;27.646;2022-12-07T04:07:30;101732.69;;;16.53;100.00
6028;BME280;3042;43.194;27.646;2022-12-07T04:09:58;101623.25;;;15.84;100.00
6028;BME280;3042;43.194;27.646;2022-12-07T04:12:25;101735.16;;;16.50;100.00
6028;BME280;3042;43.194;27.646;2022-12-07T04:14:52;101726.72;;;16.33;100.00
6028;BME280;3042;43.194;27.646;2022-12-07T04:17:19;101722.28;;;16.31;100.00
6028;BME280;3042;43.194;27.646;2022-12-07T04:19:48;101724.66;;;16.24;100.00
6028;BME280;3042;43.194;27.646;2022-12-07T04:22:15;101720.44;;;15.81;100.00
6028;BME280;3042;43.194;27.646;2022-12-07T04:24:42;101723.00;;;15.59;100.00
6028;BME280;3042;43.194;27.646;2022-12-07T04:27:09;101725.00;;;15.44;100.00
6028;BME280;3042;43.194;27.646;2022-12-07T04:29:37;101725.00;;;15.02;100.00
6028;BME280;3042;43.194;27.646;2022-12-07T04:32:04;101665.75;;;14.96;100.00
6028;BME280;3042;43.194;27.646;2022-12-07T04:34:31;101721.00;;;15.31;100.00
6028;BME280;3042;43.194;27.646;2022-12-07T04:37:00;101712.34;;;15.53;100.00
6028;BME280;3042;43.194;27.646;2022-12-07T04:39:29;101715.66;;;15.49;100.00
6028;BME280;3042;43.194;27.646;2022-12-07T04:41:57;101717.78;;;15.59;100.00
6028;BME280;3042;43.194;27.646;2022-12-07T04:44:25;101702.06;;;15.35;100.00
6028;BME280;3042;43.194;27.646;2022-12-07T04:46:53;101696.25;;;15.40;100.00
6028;BME280;3042;43.194;27.646;2022-12-07T04:49:21;101723.84;;;15.58;100.00
6028;BME280;3042;43.194;27.646;2022-12-07T04:51:48;101715.22;;;15.81;100.00
6028;BME280;3042;43.194;27.646;2022-12-07T04:54:17;101557.84;;;15.09;100.00
6028;BME280;3042;43.194;27.646;2022-12-07T04:56:45;101735.00;;;15.99;100.00
6028;BME280;3042;43.194;27.646;2022-12-07T04:59:14;101730.97;;;16.07;100.00
6028;BME280;3042;43.194;27.646;2022-12-07T05:01:41;101729.97;;;16.03;100.00
6028;BME280;3042;43.194;27.646;2022-12-07T05:04:09;101741.94;;;15.98;100.00
6028;BME280;3042;43.194;27.646;2022-12-07T05:06:36;101740.22;;;15.99;100.00
6028;BME280;3042;43.194;27.646;2022-12-07T05:09:04;101627.00;;;15.02;100.00
6028;BME280;3042;43.194;27.646;2022-12-07T05:11:33;101690.63;;;15.52;100.00
6028;BME280;3042;43.194;27.646;2022-12-07T05:14:10;101743.81;;;15.80;100.00
6028;BME280;3042;43.194;27.646;2022-12-07T05:16:38;101751.91;;;15.65;100.00
6028;BME280;3042;43.194;27.646;2022-12-07T05:19:05;101754.84;;;15.52;100.00
6028;BME280;3042;43.194;27.646;2022-12-07T05:21:33;101697.09;;;14.57;100.00
6028;BME280;3042;43.194;27.646;2022-12-07T05:24:02;101757.13;;;15.02;100.00
6028;BME280;3042;43.194;27.646;2022-12-07T05:26:29;101760.09;;;14.90;100.00
6028;BME280;3042;43.194;27.646;2022-12-07T05:28:58;101756.53;;;14.88;100.00
6028;BME280;3042;43.194;27.646;2022-12-07T05:31:26;101757.53;;;14.71;100.00
6028;BME280;3042;43.194;27.646;2022-12-07T05:33:54;101750.41;;;14.67;100.00
6028;BME280;3042;43.194;27.646;2022-12-07T05:36:21;101755.25;;;14.78;100.00
6028;BME280;3042;43.194;27.646;2022-12-07T05:38:49;101744.47;;;14.90;100.00
6028;BME280;3042;43.194;27.646;2022-12-07T05:41:18;101739.66;;;14.99;100.00
6028;BME280;3042;43.194;27.646;2022-12-07T05:44:05;101625.38;;;14.43;100.00
6028;BME280;3042;43.194;27.646;2022-12-07T05:46:32;101747.28;;;14.95;100.00
6028;BME280;3042;43.194;27.646;2022-12-07T05:49:00;101749.97;;;14.96;100.00
6028;BME280;3042;43.194;27.646;2022-12-07T05:51:28;101748.63;;;15.06;100.00
6028;BME280;3042;43.194;27.646;2022-12-07T05:53:55;101706.41;;;14.53;100.00
6028;BME280;3042;43.194;27.646;2022-12-07T05:56:22;101744.22;;;15.05;100.00
6028;BME280;3042;43.194;27.646;2022-12-07T05:58:49;101670.31;;;14.60;100.00
6028;BME280;3042;43.194;27.646;2022-12-07T06:01:35;101744.00;;;15.20;100.00
6028;BME280;3042;43.194;27.646;2022-12-07T06:04:03;101749.91;;;15.16;100.00
6028;BME280;3042;43.194;27.646;2022-12-07T06:06:30;101550.50;;;14.14;100.00
6028;BME280;3042;43.194;27.646;2022-12-07T06:08:57;101749.97;;;15.17;100.00
6028;BME280;3042;43.194;27.646;2022-12-07T06:11:25;101739.75;;;15.22;100.00
6028;BME280;3042;43.194;27.646;2022-12-07T06:14:09;101655.72;;;14.63;100.00
6028;BME280;3042;43.194;27.646;2022-12-07T06:16:38;101659.47;;;14.70;100.00
6028;BME280;3042;43.194;27.646;2022-12-07T06:19:09;101606.00;;;14.55;100.00
6028;BME280;3042;43.194;27.646;2022-12-07T06:21:44;101689.66;;;15.07;100.00
6028;BME280;3042;43.194;27.646;2022-12-07T06:24:13;101693.66;;;14.98;100.00
6028;BME280;3042;43.194;27.646;2022-12-07T06:26:41;101739.41;;;15.35;100.00
6028;BME280;3042;43.194;27.646;2022-12-07T06:29:10;101741.59;;;15.46;100.00
6028;BME280;3042;43.194;27.646;2022-12-07T06:31:39;101740.94;;;15.51;100.00
6028;BME280;3042;43.194;27.646;2022-12-07T06:34:09;101627.63;;;14.96;100.00
6028;BME280;3042;43.194;27.646;2022-12-07T06:36:36;101745.84;;;15.66;100.00
6028;BME280;3042;43.194;27.646;2022-12-07T06:39:04;101711.56;;;15.55;100.00
6028;BME280;3042;43.194;27.646;2022-12-07T06:41:32;101734.16;;;15.77;100.00
6028;BME280;3042;43.194;27.646;2022-12-07T06:43:59;101740.78;;;15.90;100.00
6028;BME280;3042;43.194;27.646;2022-12-07T06:46:26;101748.34;;;16.07;100.00
6028;BME280;3042;43.194;27.646;2022-12-07T06:48:55;101743.41;;;16.37;100.00
6028;BME280;3042;43.194;27.646;2022-12-07T06:51:22;101685.97;;;16.13;100.00
6028;BME280;3042;43.194;27.646;2022-12-07T06:53:49;101738.56;;;16.48;100.00
6028;BME280;3042;43.194;27.646;2022-12-07T06:56:16;101745.50;;;16.47;100.00
6028;BME280;3042;43.194;27.646;2022-12-07T06:58:44;101750.09;;;16.54;100.00
6028;BME280;3042;43.194;27.646;2022-12-07T07:01:11;101742.94;;;16.73;100.00
6028;BME280;3042;43.194;27.646;2022-12-07T07:03:39;101745.50;;;16.95;100.00
6028;BME280;3042;43.194;27.646;2022-12-07T07:06:08;101725.81;;;17.32;100.00
6028;BME280;3042;43.194;27.646;2022-12-07T07:08:37;101730.81;;;17.51;100.00
6028;BME280;3042;43.194;27.646;2022-12-07T07:11:05;101725.31;;;17.71;100.00
6028;BME280;3042;43.194;27.646;2022-12-07T07:13:32;101554.28;;;16.77;100.00
6028;BME280;3042;43.194;27.646;2022-12-07T07:16:00;101647.22;;;17.53;100.00
6028;BME280;3042;43.194;27.646;2022-12-07T07:18:28;101728.44;;;18.15;100.00
6028;BME280;3042;43.194;27.646;2022-12-07T07:20:55;101719.72;;;18.16;100.00
6028;BME280;3042;43.194;27.646;2022-12-07T07:23:24;101722.44;;;18.51;100.00
6028;BME280;3042;43.194;27.646;2022-12-07T07:25:52;101693.88;;;18.27;100.00
6028;BME280;3042;43.194;27.646;2022-12-07T07:28:20;101740.22;;;18.01;100.00
6028;BME280;3042;43.194;27.646;2022-12-07T07:30:47;101745.44;;;18.01;100.00
6028;BME280;3042;43.194;27.646;2022-12-07T07:33:14;101742.16;;;18.08;100.00
6028;BME280;3042;43.194;27.646;2022-12-07T07:35:42;101738.88;;;18.15;100.00
6028;BME280;3042;43.194;27.646;2022-12-07T07:38:09;101736.34;;;18.18;100.00
6028;BME280;3042;43.194;27.646;2022-12-07T07:40:37;101740.75;;;18.19;100.00
6028;BME280;3042;43.194;27.646;2022-12-07T07:43:05;101733.06;;;18.25;100.00
6028;BME280;3042;43.194;27.646;2022-12-07T07:45:32;101591.41;;;17.51;100.00
6028;BME280;3042;43.194;27.646;2022-12-07T07:47:59;101689.22;;;18.17;100.00
6028;BME280;3042;43.194;27.646;2022-12-07T07:50:28;101728.19;;;18.69;100.00
6028;BME280;3042;43.194;27.646;2022-12-07T07:52:57;101705.31;;;18.62;100.00
6028;BME280;3042;43.194;27.646;2022-12-07T07:55:27;101720.34;;;18.69;100.00
6028;BME280;3042;43.194;27.646;2022-12-07T07:57:56;101731.66;;;19.00;100.00
6028;BME280;3042;43.194;27.646;2022-12-07T08:00:23;101739.53;;;18.70;100.00
6028;BME280;3042;43.194;27.646;2022-12-07T08:02:50;101736.91;;;18.68;100.00
6028;BME280;3042;43.194;27.646;2022-12-07T08:05:17;101732.16;;;18.87;100.00
6028;BME280;3042;43.194;27.646;2022-12-07T08:07:45;101728.09;;;18.98;100.00
6028;BME280;3042;43.194;27.646;2022-12-07T08:10:13;101720.41;;;19.40;100.00
6028;BME280;3042;43.194;27.646;2022-12-07T08:12:42;101713.84;;;19.58;100.00
6028;BME280;3042;43.194;27.646;2022-12-07T08:15:25;101721.31;;;19.77;100.00
6028;BME280;3042;43.194;27.646;2022-12-07T08:17:52;101716.63;;;19.66;100.00
6028;BME280;3042;43.194;27.646;2022-12-07T08:20:20;101679.63;;;19.52;100.00
6028;BME280;3042;43.194;27.646;2022-12-07T08:22:47;101647.94;;;19.05;100.00
6028;BME280;3042;43.194;27.646;2022-12-07T08:25:15;101735.63;;;19.55;100.00
6028;BME280;3042;43.194;27.646;2022-12-07T08:27:42;101741.97;;;19.29;100.00
6028;BME280;3042;43.194;27.646;2022-12-07T08:30:09;101736.81;;;19.32;100.00
6028;BME280;3042;43.194;27.646;2022-12-07T08:32:38;101731.50;;;19.29;100.00
6028;BME280;3042;43.194;27.646;2022-12-07T08:35:08;101711.19;;;19.56;100.00
6028;BME280;3042;43.194;27.646;2022-12-07T08:37:36;101709.69;;;19.68;100.00
6028;BME280;3042;43.194;27.646;2022-12-07T08:40:05;101712.97;;;19.57;100.00
6028;BME280;3042;43.194;27.646;2022-12-07T08:42:33;101714.09;;;19.69;100.00
6028;BME280;3042;43.194;27.646;2022-12-07T08:45:06;101684.19;;;19.60;100.00
6028;BME280;3042;43.194;27.646;2022-12-07T08:47:34;101706.78;;;19.93;100.00
6028;BME280;3042;43.194;27.646;2022-12-07T08:50:06;101682.84;;;20.19;100.00
6028;BME280;3042;43.194;27.646;2022-12-07T08:52:35;101694.06;;;20.13;100.00
6028;BME280;3042;43.194;27.646;2022-12-07T08:55:03;101681.19;;;20.24;100.00
6028;BME280;3042;43.194;27.646;2022-12-07T08:57:34;101677.00;;;20.34;100.00
6028;BME280;3042;43.194;27.646;2022-12-07T09:00:02;101683.38;;;20.47;100.00
6028;BME280;3042;43.194;27.646;2022-12-07T09:02:30;101686.38;;;20.21;100.00
6028;BME280;3042;43.194;27.646;2022-12-07T09:04:58;101625.56;;;19.58;100.00
6028;BME280;3042;43.194;27.646;2022-12-07T09:07:26;101653.28;;;20.29;100.00
6028;BME280;3042;43.194;27.646;2022-12-07T09:09:54;101683.28;;;20.43;100.00
6028;BME280;3042;43.194;27.646;2022-12-07T09:12:21;101671.16;;;20.49;100.00
6028;BME280;3042;43.194;27.646;2022-12-07T09:14:48;101695.06;;;19.77;100.00
6028;BME280;3042;43.194;27.646;2022-12-07T09:17:16;101644.16;;;19.30;100.00
6028;BME280;3042;43.194;27.646;2022-12-07T09:19:43;101688.81;;;19.71;100.00
6028;BME280;3042;43.194;27.646;2022-12-07T09:22:10;101674.63;;;20.03;100.00
6028;BME280;3042;43.194;27.646;2022-12-07T09:24:39;101668.94;;;20.24;100.00
6028;BME280;3042;43.194;27.646;2022-12-07T09:27:06;101674.00;;;20.14;100.00
6028;BME280;3042;43.194;27.646;2022-12-07T09:29:33;101671.56;;;20.24;100.00
6028;BME280;3042;43.194;27.646;2022-12-07T09:32:00;101660.59;;;20.45;100.00
6028;BME280;3042;43.194;27.646;2022-12-07T09:34:30;101637.53;;;20.76;100.00
6028;BME280;3042;43.194;27.646;2022-12-07T09:36:57;101650.44;;;20.64;100.00
6028;BME280;3042;43.194;27.646;2022-12-07T09:39:26;101639.16;;;20.68;100.00
6028;BME280;3042;43.194;27.646;2022-12-07T09:41:56;101640.22;;;20.79;100.00
6028;BME280;3042;43.194;27.646;2022-12-07T09:44:25;101628.91;;;20.85;100.00
6028;BME280;3042;43.194;27.646;2022-12-07T09:46:53;101644.53;;;20.76;100.00
6028;BME280;3042;43.194;27.646;2022-12-07T09:49:23;101504.09;;;20.03;100.00
6028;BME280;3042;43.194;27.646;2022-12-07T09:52:00;101599.13;;;20.84;100.00
6028;BME280;3042;43.194;27.646;2022-12-07T09:54:28;101620.72;;;20.65;100.00
6028;BME280;3042;43.194;27.646;2022-12-07T09:56:58;101634.13;;;20.82;100.00
6028;BME280;3042;43.194;27.646;2022-12-07T09:59:26;101626.16;;;20.77;100.00
6028;BME280;3042;43.194;27.646;2022-12-07T10:01:53;101631.34;;;20.74;100.00
6028;BME280;3042;43.194;27.646;2022-12-07T10:04:22;101619.22;;;20.79;100.00
6028;BME280;3042;43.194;27.646;2022-12-07T10:06:51;101613.94;;;20.79;100.00
6028;BME280;3042;43.194;27.646;2022-12-07T10:09:19;101604.66;;;21.01;100.00
6028;BME280;3042;43.194;27.646;2022-12-07T10:12:04;101604.63;;;21.00;100.00
6028;BME280;3042;43.194;27.646;2022-12-07T10:14:34;101424.69;;;20.15;100.00
6028;BME280;3042;43.194;27.646;2022-12-07T10:17:02;101600.66;;;21.26;100.00
6028;BME280;3042;43.194;27.646;2022-12-07T10:19:31;101594.84;;;21.47;100.00
6028;BME280;3042;43.194;27.646;2022-12-07T10:22:19;101535.13;;;21.40;100.00
6028;BME280;3042;43.194;27.646;2022-12-07T10:24:47;101610.56;;;20.86;100.00
6028;BME280;3042;43.194;27.646;2022-12-07T10:27:21;101536.13;;;20.34;100.00
6028;BME280;3042;43.194;27.646;2022-12-07T10:29:50;101565.59;;;20.68;100.00
6028;BME280;3042;43.194;27.646;2022-12-07T10:32:32;101593.91;;;20.87;100.00
6028;BME280;3042;43.194;27.646;2022-12-07T10:35:19;101591.50;;;21.01;100.00
6028;BME280;3042;43.194;27.646;2022-12-07T10:37:47;101586.28;;;21.03;100.00
6028;BME280;3042;43.194;27.646;2022-12-07T10:40:30;101573.59;;;21.37;100.00
6028;BME280;3042;43.194;27.646;2022-12-07T10:43:17;101569.47;;;21.53;100.00
6028;BME280;3042;43.194;27.646;2022-12-07T10:49:13;101561.06;;;21.83;100.00
6028;BME280;3042;43.194;27.646;2022-12-07T10:51:49;101557.59;;;21.87;100.00
6028;BME280;3042;43.194;27.646;2022-12-07T10:54:28;101508.41;;;21.80;100.00
6028;BME280;3042;43.194;27.646;2022-12-07T10:57:14;101542.06;;;22.14;100.00
6028;BME280;3042;43.194;27.646;2022-12-07T10:59:56;101450.47;;;21.77;100.00
6028;BME280;3042;43.194;27.646;2022-12-07T11:02:41;101535.38;;;22.47;100.00
6028;BME280;3042;43.194;27.646;2022-12-07T11:05:19;101524.59;;;22.20;100.00
6028;BME280;3042;43.194;27.646;2022-12-07T11:07:57;101519.53;;;22.41;100.00
6028;BME280;3042;43.194;27.646;2022-12-07T11:10:32;101422.50;;;21.85;100.00
6028;BME280;3042;43.194;27.646;2022-12-07T11:13:28;101507.44;;;22.68;100.00
6028;BME280;3042;43.194;27.646;2022-12-07T11:16:18;101502.22;;;22.80;100.00
6028;BME280;3042;43.194;27.646;2022-12-07T11:18:54;101509.16;;;22.63;100.00
6028;BME280;3042;43.194;27.646;2022-12-07T11:21:30;101396.22;;;21.88;100.00
6028;BME280;3042;43.194;27.646;2022-12-07T11:24:05;101442.28;;;22.42;100.00
6028;BME280;3042;43.194;27.646;2022-12-07T11:26:56;101502.19;;;22.75;100.00
6028;BME280;3042;43.194;27.646;2022-12-07T11:29:47;101522.63;;;22.00;100.00
6028;BME280;3042;43.194;27.646;2022-12-07T11:32:23;101531.31;;;21.90;100.00
6028;BME280;3042;43.194;27.646;2022-12-07T11:35:04;101522.75;;;22.11;100.00
6028;BME280;3042;43.194;27.646;2022-12-07T11:37:34;101401.91;;;20.69;100.00
6028;BME280;3042;43.194;27.646;2022-12-07T11:40:05;101524.72;;;21.51;100.00
6028;BME280;3042;43.194;27.646;2022-12-07T11:42:36;101510.19;;;21.82;100.00
6028;BME280;3042;43.194;27.646;2022-12-07T11:45:14;101514.78;;;22.03;100.00
6028;BME280;3042;43.194;27.646;2022-12-07T11:47:47;101511.25;;;22.03;100.00
6028;BME280;3042;43.194;27.646;2022-12-07T11:50:25;101511.09;;;21.89;100.00
6028;BME280;3042;43.194;27.646;2022-12-07T11:52:57;101534.66;;;21.77;100.00
6028;BME280;3042;43.194;27.646;2022-12-07T11:55:30;101522.41;;;21.79;100.00
6028;BME280;3042;43.194;27.646;2022-12-07T11:58:04;101456.75;;;21.13;100.00
6028;BME280;3042;43.194;27.646;2022-12-07T12:00:32;101525.63;;;21.53;100.00
6028;BME280;3042;43.194;27.646;2022-12-07T12:03:09;101514.47;;;21.74;100.00
6028;BME280;3042;43.194;27.646;2022-12-07T12:05:39;101510.88;;;21.64;100.00
6028;BME280;3042;43.194;27.646;2022-12-07T12:08:13;101504.69;;;21.59;100.00
6028;BME280;3042;43.194;27.646;2022-12-07T12:10:51;101429.75;;;21.28;100.00
6028;BME280;3042;43.194;27.646;2022-12-07T12:16:40;101508.94;;;21.48;100.00
6028;BME280;3042;43.194;27.646;2022-12-07T12:19:22;101499.44;;;21.62;100.00
6028;BME280;3042;43.194;27.646;2022-12-07T12:21:56;101495.97;;;21.63;100.00
6028;BME280;3042;43.194;27.646;2022-12-07T12:24:26;101469.56;;;21.56;100.00
6028;BME280;3042;43.194;27.646;2022-12-07T12:27:04;101491.78;;;21.84;100.00
6028;BME280;3042;43.194;27.646;2022-12-07T12:29:34;101489.13;;;21.81;100.00
6028;BME280;3042;43.194;27.646;2022-12-07T12:32:11;101480.53;;;22.00;100.00
6028;BME280;3042;43.194;27.646;2022-12-07T12:34:58;101466.53;;;22.04;100.00
6028;BME280;3042;43.194;27.646;2022-12-07T12:37:44;101418.78;;;21.61;100.00
6028;BME280;3042;43.194;27.646;2022-12-07T12:40:40;101494.66;;;21.32;100.00
6028;BME280;3042;43.194;27.646;2022-12-07T12:49:41;101468.94;;;21.80;100.00
6028;BME280;3042;43.194;27.646;2022-12-07T12:58:34;101463.97;;;21.29;100.00
6028;BME280;3042;43.194;27.646;2022-12-07T13:04:49;101479.78;;;20.67;100.00
6028;BME280;3042;43.194;27.646;2022-12-07T13:07:55;101470.53;;;20.94;100.00
6028;BME280;3042;43.194;27.646;2022-12-07T13:10:42;101463.81;;;21.14;100.00
6028;BME280;3042;43.194;27.646;2022-12-07T13:13:32;101426.28;;;21.26;100.00
6028;BME280;3042;43.194;27.646;2022-12-07T13:16:37;101450.28;;;21.55;100.00
6028;BME280;3042;43.194;27.646;2022-12-07T13:25:43;101465.94;;;21.46;100.00
6028;BME280;3042;43.194;27.646;2022-12-07T13:28:16;101458.06;;;21.49;100.00
6028;BME280;3042;43.194;27.646;2022-12-07T13:30:49;101424.75;;;21.45;100.00
6028;BME280;3042;43.194;27.646;2022-12-07T13:33:18;101460.78;;;21.52;100.00
6028;BME280;3042;43.194;27.646;2022-12-07T13:35:45;101464.84;;;21.28;100.00
6028;BME280;3042;43.194;27.646;2022-12-07T13:38:25;101453.81;;;21.57;100.00
6028;BME280;3042;43.194;27.646;2022-12-07T13:41:16;101404.44;;;21.35;100.00
6028;BME280;3042;43.194;27.646;2022-12-07T13:43:49;101285.31;;;20.58;100.00
6028;BME280;3042;43.194;27.646;2022-12-07T13:46:19;101450.41;;;21.69;100.00
6028;BME280;3042;43.194;27.646;2022-12-07T13:48:49;101452.91;;;21.58;100.00
6028;BME280;3042;43.194;27.646;2022-12-07T13:51:19;101450.19;;;21.49;100.00